Terminal Aerodrome Forecast
Issued by NWS Lake Charles, LA

Home | Current Version | Previous Version | Text Only | Print | Product List | Glossary On
Versions: 1 2 3 4 5 6 7 8 9 10 11 12 13 14 15 16 17 18 19 20 21
000
FTUS44 KLCH 281737
TAFBPT
TAF
KBPT 281737Z 2818/2918 16007KT P6SM SCT026
     FM290900 VRB03KT 6SM BR SCT007 BKN020
      TEMPO 2910/2914 4SM BR BKN007 OVC020
     FM291400 15006KT P6SM BKN035 BKN250=

USA.gov is the U.S. government's official web portal to all federal, state and local government web resources and services.